createdAt,value
2022-12-22T00:00:18.797Z,35.67
2022-12-22T00:03:04.346Z,35.40
2022-12-22T00:05:50.295Z,35.60
2022-12-22T00:08:36.130Z,32.60
2022-12-22T00:11:21.868Z,37.37
2022-12-22T00:14:07.451Z,35.27
2022-12-22T00:16:56.350Z,35.77
2022-12-22T00:19:43.071Z,32.93
2022-12-22T00:22:33.563Z,33.80
2022-12-22T00:25:18.914Z,34.40
2022-12-22T00:28:04.785Z,32.33
2022-12-22T00:30:50.892Z,33.97
2022-12-22T00:33:39.380Z,38.00
2022-12-22T00:36:29.319Z,33.23
2022-12-22T00:39:15.193Z,36.73
2022-12-22T00:42:01.142Z,32.57
2022-12-22T00:44:46.832Z,36.57
2022-12-22T00:47:44.264Z,33.70
2022-12-22T00:50:30.698Z,35.10
2022-12-22T00:53:18.080Z,35.50
2022-12-22T00:56:04.099Z,35.17
2022-12-22T00:58:49.818Z,34.27
2022-12-22T01:01:36.869Z,30.60
2022-12-22T01:04:22.379Z,33.57
2022-12-22T01:07:07.913Z,30.87
2022-12-22T01:09:54.632Z,33.87
2022-12-22T01:12:43.750Z,33.70
2022-12-22T01:15:35.189Z,39.00
2022-12-22T01:18:21.105Z,35.70
2022-12-22T01:21:06.563Z,35.70
2022-12-22T01:23:52.424Z,35.70
2022-12-22T01:26:38.794Z,36.20
2022-12-22T01:29:24.540Z,36.03
2022-12-22T01:32:10.278Z,34.50
2022-12-22T01:34:56.749Z,36.60
2022-12-22T01:37:42.765Z,36.73
2022-12-22T01:40:38.876Z,35.87
2022-12-22T01:43:41.355Z,33.17
2022-12-22T01:46:45.161Z,33.40
2022-12-22T01:49:51.786Z,34.27
2022-12-22T01:52:42.609Z,33.90
2022-12-22T01:55:35.484Z,35.80
2022-12-22T01:58:21.135Z,33.60
2022-12-22T02:01:07.069Z,35.30
2022-12-22T02:03:52.565Z,33.33
2022-12-22T02:06:56.228Z,34.30
2022-12-22T02:10:03.763Z,31.03
2022-12-22T02:13:15.873Z,34.27
2022-12-22T02:16:10.183Z,31.87
2022-12-22T02:19:31.528Z,30.37
2022-12-22T02:22:50.904Z,33.17
2022-12-22T02:25:47.323Z,33.57
2022-12-22T02:28:34.336Z,32.50
2022-12-22T02:31:19.623Z,34.53
2022-12-22T02:34:05.062Z,33.60
2022-12-22T02:37:02.422Z,30.60
2022-12-22T02:40:35.691Z,32.70
2022-12-22T02:44:11.520Z,27.80
2022-12-22T02:47:39.070Z,30.50
2022-12-22T02:50:48.657Z,31.77
2022-12-22T02:53:36.658Z,30.93
2022-12-22T02:56:26.767Z,32.37
2022-12-22T02:59:12.968Z,34.00
2022-12-22T03:02:01.990Z,35.57
2022-12-22T03:04:47.948Z,33.13
2022-12-22T03:07:34.042Z,32.87
2022-12-22T03:10:19.568Z,30.60
2022-12-22T03:13:05.259Z,30.50
2022-12-22T03:15:51.144Z,29.70
2022-12-22T03:18:36.493Z,33.93
2022-12-22T03:21:22.353Z,34.43
2022-12-22T03:24:08.257Z,36.83
2022-12-22T03:26:35.273Z,33.20
2022-12-22T03:29:02.407Z,35.67
2022-12-22T03:31:29.490Z,31.90
2022-12-22T03:33:56.484Z,34.43
2022-12-22T03:36:23.547Z,32.67
2022-12-22T03:38:50.567Z,32.23
2022-12-22T03:41:40.379Z,34.07
2022-12-22T03:44:25.952Z,32.47
2022-12-22T03:46:52.970Z,35.13
2022-12-22T03:49:22.648Z,33.10
2022-12-22T03:51:52.404Z,33.20
2022-12-22T03:54:25.565Z,35.37
2022-12-22T03:56:54.125Z,33.30
2022-12-22T03:59:21.631Z,36.00
2022-12-22T04:01:53.194Z,34.30
2022-12-22T04:04:24.057Z,33.17
2022-12-22T04:06:51.364Z,33.40
2022-12-22T04:09:18.493Z,34.57
2022-12-22T04:12:03.947Z,34.80
2022-12-22T04:14:34.178Z,37.37
2022-12-22T04:17:04.326Z,33.30
2022-12-22T04:19:32.286Z,34.70
2022-12-22T04:21:59.896Z,35.07
2022-12-22T04:24:26.954Z,35.07
2022-12-22T04:26:54.235Z,35.10
2022-12-22T04:29:21.238Z,38.47
2022-12-22T04:31:48.217Z,32.53
2022-12-22T04:34:15.272Z,37.20
2022-12-22T04:36:42.340Z,36.70
2022-12-22T04:39:09.368Z,38.53
2022-12-22T04:41:36.417Z,36.57
2022-12-22T04:44:03.320Z,36.63
2022-12-22T04:46:30.453Z,37.70
2022-12-22T04:49:00.257Z,34.97
2022-12-22T04:51:28.947Z,33.50
2022-12-22T04:53:56.497Z,37.60
2022-12-22T04:56:23.683Z,35.00
2022-12-22T04:58:50.621Z,34.60
2022-12-22T05:01:19.487Z,36.03
2022-12-22T05:03:47.605Z,36.47
2022-12-22T05:06:15.241Z,35.43
2022-12-22T05:08:42.284Z,36.63
2022-12-22T05:11:09.553Z,37.20
2022-12-22T05:13:36.694Z,39.00
2022-12-22T05:16:10.169Z,39.47
2022-12-22T05:18:39.121Z,37.40
2022-12-22T05:21:23.310Z,35.60
2022-12-22T05:23:51.004Z,37.90
2022-12-22T05:26:19.941Z,40.40
2022-12-22T05:28:48.253Z,38.00
2022-12-22T05:31:22.653Z,38.83
2022-12-22T05:33:50.678Z,40.60
2022-12-22T05:36:18.277Z,35.67
2022-12-22T05:38:45.856Z,37.03
2022-12-22T05:41:13.126Z,36.07
2022-12-22T05:43:40.097Z,38.33
2022-12-22T05:46:10.831Z,35.77
2022-12-22T05:48:39.901Z,38.23
2022-12-22T05:51:11.140Z,38.10
2022-12-22T05:53:38.968Z,39.47
2022-12-22T05:56:07.637Z,39.07
2022-12-22T05:58:38.399Z,36.77
2022-12-22T06:01:06.815Z,37.87
2022-12-22T06:03:34.598Z,41.03
2022-12-22T06:06:01.869Z,36.80
2022-12-22T06:08:29.447Z,37.73
2022-12-22T06:10:58.868Z,37.30
2022-12-22T06:13:26.632Z,39.07
2022-12-22T06:15:54.062Z,38.60
2022-12-22T06:18:21.297Z,39.57
2022-12-22T06:20:52.563Z,40.07
2022-12-22T06:23:20.664Z,38.57
2022-12-22T06:25:56.597Z,36.80
2022-12-22T06:28:24.013Z,38.37
2022-12-22T06:30:51.171Z,38.90
2022-12-22T06:33:18.235Z,39.70
2022-12-22T06:35:45.344Z,40.40
2022-12-22T06:38:12.515Z,37.30
2022-12-22T06:40:39.720Z,38.00
2022-12-22T06:43:10.311Z,39.37
2022-12-22T06:45:41.076Z,34.33
2022-12-22T06:48:10.841Z,43.17
2022-12-22T06:50:38.170Z,39.87
2022-12-22T06:53:06.804Z,38.67
2022-12-22T06:55:33.764Z,41.27
2022-12-22T06:58:00.851Z,39.17
2022-12-22T07:00:28.018Z,39.90
2022-12-22T07:02:55.565Z,38.90
2022-12-22T07:05:26.418Z,42.27
2022-12-22T07:07:53.943Z,41.13
2022-12-22T07:10:40.921Z,40.50
2022-12-22T07:13:19.596Z,39.23
2022-12-22T07:15:57.536Z,41.90
2022-12-22T07:18:29.847Z,43.80
2022-12-22T07:20:57.257Z,43.47
2022-12-22T07:23:24.629Z,44.17
2022-12-22T07:25:51.905Z,46.50
2022-12-22T07:28:21.241Z,43.90
2022-12-22T07:30:50.913Z,43.40
2022-12-22T07:33:19.058Z,43.50
2022-12-22T07:35:47.115Z,39.07
2022-12-22T07:38:14.254Z,40.33
2022-12-22T07:40:42.354Z,43.70
2022-12-22T07:43:10.747Z,40.37
2022-12-22T07:45:37.787Z,42.87
2022-12-22T07:48:25.855Z,40.80
2022-12-22T07:50:53.418Z,42.07
2022-12-22T07:53:20.321Z,40.13
2022-12-22T07:55:47.381Z,40.07
2022-12-22T07:58:14.288Z,40.90
2022-12-22T08:00:41.272Z,40.13
2022-12-22T08:03:09.991Z,38.40
2022-12-22T08:05:38.509Z,39.90
2022-12-22T08:08:05.811Z,37.23
2022-12-22T08:10:33.135Z,39.70
2022-12-22T08:13:00.174Z,45.67
2022-12-22T08:15:27.562Z,41.47
2022-12-22T08:17:54.573Z,41.53
2022-12-22T08:20:21.540Z,40.87
2022-12-22T08:22:48.506Z,39.63
2022-12-22T08:25:15.645Z,41.37
2022-12-22T08:27:51.799Z,40.67
2022-12-22T08:30:19.114Z,40.00
2022-12-22T08:32:49.330Z,42.30
2022-12-22T08:35:17.867Z,43.87
2022-12-22T08:37:46.895Z,44.83
2022-12-22T08:40:24.205Z,43.87
2022-12-22T08:42:59.338Z,38.77
2022-12-22T08:45:26.491Z,40.93
2022-12-22T08:47:53.471Z,44.47
2022-12-22T08:50:20.650Z,37.93
2022-12-22T08:52:47.714Z,41.17
2022-12-22T08:55:14.832Z,40.70
2022-12-22T08:57:42.096Z,41.67
2022-12-22T09:00:13.557Z,40.77
2022-12-22T09:02:40.872Z,39.43
2022-12-22T09:05:08.652Z,43.00
2022-12-22T09:07:35.760Z,37.30
2022-12-22T09:10:02.826Z,39.57
2022-12-22T09:12:30.574Z,40.80
2022-12-22T09:14:57.520Z,36.17
2022-12-22T09:17:24.503Z,35.30
2022-12-22T09:19:51.564Z,43.10
2022-12-22T09:22:25.088Z,38.07
2022-12-22T09:24:55.244Z,39.50
2022-12-22T09:27:22.213Z,40.13
2022-12-22T09:29:49.197Z,39.93
2022-12-22T09:32:16.341Z,41.57
2022-12-22T09:34:43.448Z,41.20
2022-12-22T09:37:10.462Z,40.77
2022-12-22T09:39:37.618Z,40.60
2022-12-22T09:42:04.802Z,44.30
2022-12-22T09:44:44.961Z,48.87
2022-12-22T09:47:56.246Z,49.70
2022-12-22T09:50:26.454Z,49.50
2022-12-22T09:53:02.022Z,51.07
2022-12-22T09:55:47.656Z,48.53
2022-12-22T09:58:30.125Z,49.83
2022-12-22T10:01:06.049Z,49.33
2022-12-22T10:03:46.513Z,47.50
2022-12-22T10:06:39.796Z,48.80
2022-12-22T10:09:48.625Z,45.13
2022-12-22T10:12:20.188Z,45.90
2022-12-22T10:14:51.511Z,42.57
2022-12-22T10:17:32.718Z,44.23
2022-12-22T10:20:29.844Z,41.10
2022-12-22T10:23:05.376Z,38.20
2022-12-22T10:26:16.958Z,43.00
2022-12-22T10:28:34.047Z,38.70
2022-12-22T10:31:24.628Z,41.87
2022-12-22T10:33:57.782Z,40.07
2022-12-22T10:36:27.859Z,38.60
2022-12-22T10:39:02.167Z,41.77
2022-12-22T10:41:35.895Z,39.53
2022-12-22T10:44:09.926Z,38.77
2022-12-22T10:46:48.833Z,39.57
2022-12-22T10:49:23.078Z,39.00
2022-12-22T10:52:30.934Z,40.80
2022-12-22T10:55:29.385Z,37.70
2022-12-22T10:58:11.446Z,40.60
2022-12-22T11:00:39.250Z,39.50
2022-12-22T11:03:08.355Z,36.30
2022-12-22T11:05:35.534Z,41.70
2022-12-22T11:08:18.214Z,39.30
2022-12-22T11:11:07.446Z,35.10
2022-12-22T11:14:12.533Z,41.67
2022-12-22T11:16:59.489Z,44.20
2022-12-22T11:19:50.521Z,44.87
2022-12-22T11:23:01.942Z,44.77
2022-12-22T11:26:23.580Z,45.27
2022-12-22T11:29:15.585Z,48.30
2022-12-22T11:31:58.097Z,44.10
2022-12-22T11:34:52.881Z,45.00
2022-12-22T11:37:40.407Z,42.77
2022-12-22T11:40:49.899Z,45.80
2022-12-22T11:43:49.135Z,41.33
2022-12-22T11:46:51.845Z,45.47
2022-12-22T11:49:52.573Z,44.03
2022-12-22T11:52:35.891Z,43.33
2022-12-22T11:55:14.530Z,45.00
2022-12-22T11:58:21.943Z,40.20
2022-12-22T12:01:24.070Z,40.40
2022-12-22T12:04:23.613Z,42.70
2022-12-22T12:07:27.815Z,42.30
2022-12-22T12:10:29.247Z,42.00
2022-12-22T12:13:36.604Z,42.03
2022-12-22T12:16:44.429Z,40.00
2022-12-22T12:19:46.283Z,40.33
2022-12-22T12:22:33.329Z,41.30
2022-12-22T12:25:11.602Z,39.47
2022-12-22T12:27:57.641Z,39.60
2022-12-22T12:30:41.939Z,37.70
2022-12-22T12:33:21.915Z,36.70
2022-12-22T12:36:05.865Z,37.93
2022-12-22T12:39:08.801Z,39.30
2022-12-22T12:41:50.464Z,37.23
2022-12-22T12:44:23.446Z,36.00
2022-12-22T12:46:53.670Z,38.93
2022-12-22T12:49:38.822Z,39.57
2022-12-22T12:52:10.604Z,40.03
2022-12-22T16:08:03.946Z,3.27
2022-12-22T16:10:34.638Z,3.30
2022-12-22T16:13:04.100Z,3.27
2022-12-22T16:15:34.709Z,4.27
2022-12-22T16:18:02.873Z,3.70
2022-12-22T16:20:37.876Z,4.50
2022-12-22T16:23:10.445Z,4.83
2022-12-22T16:25:39.876Z,4.50
2022-12-22T16:28:07.423Z,2.43
2022-12-22T16:30:35.051Z,3.30
2022-12-22T16:33:02.088Z,2.80
2022-12-22T16:35:32.989Z,2.63
2022-12-22T16:38:00.576Z,2.30
2022-12-22T16:40:28.920Z,2.60
2022-12-22T16:46:15.166Z,3.40
2022-12-22T16:49:00.370Z,5.03
2022-12-22T16:51:34.555Z,4.30
2022-12-22T16:54:02.739Z,5.37
2022-12-22T16:56:31.604Z,3.93
2022-12-22T16:59:03.155Z,6.10
2022-12-22T17:01:47.421Z,5.37
2022-12-22T17:04:23.968Z,4.43
2022-12-22T17:06:53.196Z,4.27
2022-12-22T17:09:53.528Z,5.40
2022-12-22T17:12:28.696Z,4.10
2022-12-22T17:14:58.667Z,3.10
2022-12-22T17:17:32.040Z,4.60
2022-12-22T17:20:01.334Z,4.07
2022-12-22T17:22:32.848Z,4.17
2022-12-22T17:25:04.580Z,4.37
2022-12-22T17:27:33.153Z,4.60
2022-12-22T17:30:05.815Z,4.90
2022-12-22T17:32:32.777Z,5.13
2022-12-22T17:34:59.722Z,5.47
2022-12-22T17:37:26.843Z,5.33
2022-12-22T17:40:00.900Z,3.90
2022-12-22T17:42:31.352Z,4.37
2022-12-22T17:44:58.481Z,3.73
2022-12-22T17:47:33.424Z,3.87
2022-12-22T17:50:03.447Z,3.60
2022-12-22T17:52:30.411Z,3.27
2022-12-22T17:54:57.618Z,3.20
2022-12-22T17:57:32.812Z,4.00
2022-12-22T18:00:00.780Z,4.40
2022-12-22T18:02:27.956Z,2.87
2022-12-22T18:04:55.194Z,3.40
2022-12-22T18:07:25.108Z,2.17
2022-12-22T18:09:59.227Z,2.90
2022-12-22T18:12:26.724Z,3.73
2022-12-22T18:14:53.713Z,3.37
2022-12-22T18:17:28.605Z,3.90
2022-12-22T18:20:00.678Z,3.10
2022-12-22T18:22:30.288Z,3.13
2022-12-22T18:24:58.664Z,3.33
2022-12-22T18:27:25.716Z,3.00
2022-12-22T18:29:52.828Z,3.37
2022-12-22T18:32:27.203Z,3.50
2022-12-22T18:34:54.996Z,2.70
2022-12-22T18:37:22.134Z,3.43
2022-12-22T18:39:49.144Z,3.80
2022-12-22T18:42:24.238Z,2.60
2022-12-22T18:44:52.040Z,2.93
2022-12-22T18:47:19.833Z,2.80
2022-12-22T18:49:47.055Z,3.13
2022-12-22T18:52:23.874Z,2.30
2022-12-22T18:54:50.894Z,2.87
2022-12-22T18:57:20.459Z,3.43
2022-12-22T18:59:49.018Z,4.50
2022-12-22T19:02:26.053Z,4.57
2022-12-22T19:04:54.263Z,3.60
2022-12-22T19:07:25.317Z,5.20
2022-12-22T19:09:52.522Z,7.80
2022-12-22T19:12:23.601Z,6.87
2022-12-22T19:14:55.574Z,9.33
2022-12-22T19:17:29.167Z,6.30
2022-12-22T19:19:57.213Z,6.73
2022-12-22T19:22:24.275Z,6.40
2022-12-22T19:24:51.889Z,6.40
2022-12-22T19:27:23.568Z,6.37
2022-12-22T19:30:02.704Z,6.47
2022-12-22T19:32:41.440Z,7.63
2022-12-22T19:35:19.120Z,6.40
2022-12-22T19:37:49.579Z,7.10
2022-12-22T19:40:19.198Z,9.50
2022-12-22T19:42:50.038Z,10.23
2022-12-22T19:45:25.004Z,9.30
2022-12-22T19:47:54.604Z,11.20
2022-12-22T19:50:26.718Z,14.33
2022-12-22T19:52:56.504Z,13.47
2022-12-22T19:55:27.955Z,12.93
2022-12-22T19:57:56.279Z,14.03
2022-12-22T20:00:27.562Z,15.33
2022-12-22T20:02:57.898Z,14.73
2022-12-22T20:05:25.232Z,14.90
2022-12-22T20:07:56.051Z,13.63
2022-12-22T20:10:24.718Z,14.17
2022-12-22T20:12:55.728Z,15.17
2022-12-22T20:15:30.601Z,14.90
2022-12-22T20:17:58.463Z,11.77
2022-12-22T20:20:35.221Z,14.43
2022-12-22T20:23:17.300Z,12.10
2022-12-22T20:25:49.631Z,10.20
2022-12-22T20:28:23.889Z,7.80
2022-12-22T20:30:51.944Z,6.03
2022-12-22T20:33:22.188Z,5.40
2022-12-22T20:35:52.054Z,5.27
2022-12-22T20:38:37.797Z,4.77
2022-12-22T20:41:09.211Z,5.70
2022-12-22T20:43:38.388Z,4.90
2022-12-22T20:46:20.339Z,5.80
2022-12-22T20:48:54.620Z,5.40
2022-12-22T20:51:24.323Z,5.27
2022-12-22T20:53:53.114Z,6.07
2022-12-22T20:56:39.714Z,6.33
2022-12-22T20:59:21.100Z,5.13
2022-12-22T21:01:51.574Z,6.27
2022-12-22T21:04:19.523Z,5.97
2022-12-22T21:06:52.080Z,6.10
2022-12-22T21:09:20.053Z,6.03
2022-12-22T21:11:47.183Z,6.55
2022-12-22T21:14:14.771Z,6.80
2022-12-22T21:16:46.533Z,5.10
2022-12-22T21:19:19.515Z,5.33
2022-12-22T21:21:47.828Z,5.53
2022-12-22T21:24:15.135Z,6.50
2022-12-22T21:26:53.863Z,6.07
2022-12-22T21:29:25.209Z,6.33
2022-12-22T21:31:52.528Z,5.60
2022-12-22T21:34:20.957Z,6.17
2022-12-22T21:36:57.539Z,7.20
2022-12-22T21:39:41.898Z,7.07
2022-12-22T21:42:20.138Z,6.03
2022-12-22T21:44:47.316Z,7.77
2022-12-22T21:47:18.515Z,7.13
2022-12-22T21:49:45.705Z,7.00
2022-12-22T21:52:12.889Z,7.57
2022-12-22T21:54:39.925Z,6.20
2022-12-22T21:57:07.074Z,6.30
2022-12-22T21:59:34.209Z,6.10
2022-12-22T22:02:01.202Z,7.63
2022-12-22T22:04:28.313Z,8.17
2022-12-22T22:06:55.421Z,8.37
2022-12-22T22:09:22.391Z,8.20
2022-12-22T22:12:09.220Z,7.87
2022-12-22T22:14:37.432Z,8.27
2022-12-22T22:17:04.997Z,8.20
2022-12-22T22:19:32.272Z,9.43
2022-12-22T22:21:59.305Z,10.90
2022-12-22T22:24:26.568Z,9.80
2022-12-22T22:26:56.535Z,10.37
2022-12-22T22:29:23.720Z,14.03
2022-12-22T22:31:50.820Z,12.70
2022-12-22T22:34:17.812Z,11.87
2022-12-22T22:36:44.776Z,9.77
2022-12-22T22:39:12.176Z,10.20
2022-12-22T22:41:43.298Z,9.57
2022-12-22T22:44:11.694Z,10.07
2022-12-22T22:46:38.831Z,10.20
2022-12-22T22:49:07.483Z,10.07
2022-12-22T22:51:34.626Z,9.67
2022-12-22T22:54:01.607Z,11.00
2022-12-22T22:56:28.679Z,11.47
2022-12-22T22:58:55.725Z,10.90
2022-12-22T23:01:22.793Z,10.90
2022-12-22T23:03:50.044Z,11.03
2022-12-22T23:06:17.137Z,10.57
2022-12-22T23:08:44.126Z,10.67
2022-12-22T23:11:14.879Z,10.67
2022-12-22T23:13:43.011Z,10.50
2022-12-22T23:16:10.442Z,12.50
2022-12-22T23:18:37.794Z,10.97
2022-12-22T23:21:07.400Z,11.27
2022-12-22T23:23:35.706Z,14.23
2022-12-22T23:26:02.791Z,15.00
2022-12-22T23:28:29.855Z,15.30
2022-12-22T23:30:56.786Z,19.10
2022-12-22T23:33:24.043Z,21.87
2022-12-22T23:35:51.669Z,23.07
2022-12-22T23:38:21.346Z,25.47
2022-12-22T23:40:53.914Z,27.73
2022-12-22T23:43:22.110Z,29.40
2022-12-22T23:45:49.331Z,29.27
2022-12-22T23:48:16.496Z,34.10
2022-12-22T23:50:47.331Z,32.13
2022-12-22T23:53:16.061Z,31.70
2022-12-22T23:55:48.111Z,30.90
2022-12-22T23:58:16.258Z,34.70
